U-Tapao International Airport
VTBU : now visible

Airfield :











YOU CAN JOIN US ON...

 
LOGIN :

Register | Disclaimer

   EN    FR    IT 

 









Legend :    VFR   Marginal VFR   IFR   Intensive IFR   Very Intensive IFR
Visi :
Ceiling :
>= 8 km
>= 3000ft
5 to 8 km
1000 to 3000 ft
1500m to 5 km
500 to 1000 ft
800 to 1500m
200 to 500 ft
< 800m
< 200 ft
Symbols :   Thunderstorms  Fog  Heavy snow  Heavy precipitations  Wind > 20 kt






- Airport Elevation : 42 ft
- IATA code : UTP


VTBU - U-Tapao International

CURRENT METAR :
  • 171200Z 18009KT 9000 FEW020 30/25 Q1008 NOSIG

EXPIRED METARs :
  • 171130Z 17008KT 9000 FEW020 30/25 Q1007 NOSIG
  • 171100Z 17009KT 9999 FEW020 30/25 Q1007 NOSIG
  • 171030Z 19010KT 150V220 9999 FEW020 31/25 Q1007 NOSIG
  • 171000Z 18011KT 150V210 9999 FEW020 32/25 Q1007 NOSIG
  • 170930Z 18012KT 150V210 9999 FEW020 33/25 Q1007 NOSIG
  • 170900Z 19011KT 160V220 9999 FEW020 33/26 Q1007 NOSIG
  • 170830Z 19012KT 160V220 9999 FEW020 33/26 Q1008 NOSIG
  • 170800Z 18013KT 150V210 9999 FEW020 33/26 Q1008 NOSIG

TAF TAF VTBU
Valid from the 17 at 12:00 until the 18 at 12:00 UTC


171100Z 1712/1812 19008KT 9999 FEW020
VTBB FIR / Asia



MET'MAP, your aeronautical weather chart ! - Copyright ORBIFLY December 2007 - Disclaimer

ORBIFLY MET'MAP TEAM :

Programming & Development : Alexandra Zaïnal
Original concept : Baudouin d'Aumeries
Technical & hardware support : Manuel Goepfert
Assistance : Marc-Olivier Méhu




SOURCES & CREDITS :

   NOAA       Earth
Advisory